createdAt,value
2023-04-18T00:04:07.880Z,39.35
2023-04-18T00:09:12.010Z,36.53
2023-04-18T00:14:15.836Z,28.80
2023-04-18T00:19:20.394Z,26.35
2023-04-18T00:24:24.452Z,14.20
2023-04-18T00:29:28.691Z,8.65
2023-04-18T00:34:31.821Z,5.65
2023-04-18T00:39:38.423Z,6.50
2023-04-18T00:44:42.436Z,13.93
2023-04-18T00:49:48.050Z,12.05
2023-04-18T00:54:52.741Z,9.48
2023-04-18T00:59:57.000Z,7.30
2023-04-18T01:05:00.888Z,6.88
2023-04-18T01:10:04.805Z,11.30
2023-04-18T01:15:09.226Z,15.40
2023-04-18T01:20:14.290Z,19.67
2023-04-18T01:25:18.141Z,18.05
2023-04-18T01:30:21.281Z,15.95
2023-04-18T01:35:25.389Z,17.95
2023-04-18T01:40:30.109Z,22.70
2023-04-18T01:45:33.990Z,26.75
2023-04-18T01:50:37.894Z,32.50
2023-04-18T01:55:40.965Z,30.27
2023-04-18T02:00:44.606Z,30.38
2023-04-18T02:05:48.672Z,26.55
2023-04-18T02:10:52.285Z,21.50
2023-04-18T02:15:57.424Z,18.83
2023-04-18T02:21:01.259Z,19.25
2023-04-18T02:26:05.479Z,13.30
2023-04-18T02:31:14.856Z,8.77
2023-04-18T02:36:18.240Z,3.88
2023-04-18T02:41:22.444Z,2.35
2023-04-18T02:46:26.385Z,1.98
2023-04-18T02:51:30.422Z,2.03
2023-04-18T02:56:40.228Z,2.22
2023-04-18T03:01:56.364Z,12.73
2023-04-18T03:07:00.500Z,14.30
2023-04-18T03:12:06.831Z,14.93
2023-04-18T03:17:13.177Z,12.02
2023-04-18T03:22:20.322Z,9.88
2023-04-18T03:27:32.167Z,7.22
2023-04-18T03:32:36.624Z,5.88
2023-04-18T03:37:40.303Z,6.22
2023-04-18T03:42:46.357Z,5.88
2023-04-18T03:47:49.674Z,5.88
2023-04-18T03:52:53.901Z,6.18
2023-04-18T03:57:59.368Z,5.32
2023-04-18T04:03:07.359Z,4.00
2023-04-18T04:08:10.690Z,3.38
2023-04-18T04:13:14.264Z,3.03
2023-04-18T04:18:17.775Z,4.47
2023-04-18T04:23:23.164Z,4.20
2023-04-18T04:28:29.076Z,3.85
2023-04-18T04:33:39.235Z,3.65
2023-04-18T04:38:49.188Z,3.97
2023-04-18T04:43:58.019Z,7.07
2023-04-18T04:49:07.282Z,9.57
2023-04-18T04:54:11.231Z,10.95
2023-04-18T04:59:15.344Z,9.18
2023-04-18T05:04:21.395Z,7.80
2023-04-18T05:09:24.968Z,6.40
2023-04-18T05:14:28.145Z,5.03
2023-04-18T05:19:31.370Z,2.42
2023-04-18T05:24:37.218Z,2.20
2023-04-18T05:29:40.687Z,1.50
2023-04-18T05:34:44.221Z,1.38
2023-04-18T05:39:47.530Z,1.15
2023-04-18T05:44:51.044Z,1.10
2023-04-18T05:49:56.049Z,1.10
2023-04-18T05:54:59.658Z,1.52
2023-04-18T06:00:02.798Z,0.90
2023-04-18T06:05:16.772Z,0.80
2023-04-18T06:10:21.022Z,0.70
2023-04-18T06:15:25.338Z,0.70
2023-04-18T06:20:29.207Z,0.57
2023-04-18T06:25:33.096Z,0.30
2023-04-18T06:30:37.048Z,0.50
2023-04-18T06:35:41.808Z,0.47
2023-04-18T06:40:44.962Z,0.25
2023-04-18T06:45:49.093Z,0.32
2023-04-18T06:50:52.073Z,0.35
2023-04-18T06:55:55.135Z,0.40
2023-04-18T07:00:59.253Z,0.30
2023-04-18T07:06:03.602Z,0.32
2023-04-18T07:11:07.221Z,0.28
2023-04-18T07:16:10.901Z,0.30
2023-04-18T07:21:14.967Z,0.40
2023-04-18T07:26:18.124Z,0.50
2023-04-18T07:31:21.781Z,0.30
2023-04-18T07:36:26.714Z,0.50
2023-04-18T07:41:31.022Z,0.40
2023-04-18T07:46:35.208Z,0.70
2023-04-18T07:51:38.860Z,0.50
2023-04-18T07:56:42.934Z,0.40
2023-04-18T08:01:47.057Z,0.50
2023-04-18T08:06:51.455Z,0.57
2023-04-18T08:11:57.223Z,0.70
2023-04-18T08:17:01.276Z,0.80
2023-04-18T08:22:12.239Z,0.80
2023-04-18T08:27:16.145Z,0.65
2023-04-18T08:32:19.811Z,0.90
2023-04-18T08:37:23.466Z,0.50
2023-04-18T08:42:27.971Z,1.08
2023-04-18T08:47:32.231Z,1.02
2023-04-18T08:52:38.037Z,0.70
2023-04-18T08:57:42.022Z,0.80
2023-04-18T09:02:47.437Z,0.90
2023-04-18T09:07:53.796Z,0.83
2023-04-18T09:12:58.638Z,1.20
2023-04-18T09:18:03.562Z,0.68
2023-04-18T09:23:12.908Z,0.95
2023-04-18T09:28:29.977Z,0.80
2023-04-18T09:33:34.322Z,1.55
2023-04-18T09:38:41.727Z,0.98
2023-04-18T09:43:47.182Z,0.90
2023-04-18T09:48:51.078Z,0.90
2023-04-18T09:53:55.426Z,0.93
2023-04-18T09:59:43.378Z,1.02
2023-04-18T10:04:49.525Z,1.15
2023-04-18T10:09:53.588Z,0.88
2023-04-18T10:14:57.514Z,1.17
2023-04-18T10:20:07.332Z,1.20
2023-04-18T10:25:10.979Z,1.10
2023-04-18T10:30:15.836Z,1.73
2023-04-18T10:35:21.862Z,1.30
2023-04-18T10:40:35.498Z,1.05
2023-04-18T10:45:39.720Z,1.20
2023-04-18T10:51:14.582Z,0.80
2023-04-18T10:56:18.940Z,1.10
2023-04-18T11:01:32.646Z,1.30
2023-04-18T11:06:49.182Z,0.82
2023-04-18T11:12:06.358Z,0.80
2023-04-18T11:17:21.329Z,0.90
2023-04-18T11:22:25.149Z,0.75
2023-04-18T11:27:30.335Z,0.88
2023-04-18T11:32:36.392Z,0.95
2023-04-18T11:37:41.191Z,0.98
2023-04-18T11:42:44.959Z,1.58
2023-04-18T11:47:48.578Z,1.30
2023-04-18T11:52:54.420Z,3.38
2023-04-18T11:57:59.073Z,1.30
2023-04-18T12:03:05.032Z,2.97
2023-04-18T12:08:19.401Z,0.90
2023-04-18T12:13:31.695Z,3.20
2023-04-18T12:18:35.413Z,1.17
2023-04-18T12:23:42.149Z,1.10
2023-04-18T12:33:50.768Z,1.00
2023-04-18T12:38:54.777Z,2.10
2023-04-18T12:43:57.874Z,0.98
2023-04-18T12:49:02.044Z,0.90
2023-04-18T12:54:05.865Z,1.10
2023-04-18T12:59:09.522Z,1.10
2023-04-18T13:04:13.534Z,1.10
2023-04-18T13:09:18.050Z,0.90
2023-04-18T13:14:21.614Z,1.17
2023-04-18T13:19:25.714Z,1.10
2023-04-18T13:24:29.238Z,2.38
2023-04-18T13:29:32.733Z,1.20
2023-04-18T13:34:40.278Z,1.38
2023-04-18T13:39:44.296Z,1.17
2023-04-18T13:44:48.413Z,1.45
2023-04-18T13:49:51.792Z,1.02
2023-04-18T13:54:56.254Z,1.20
2023-04-18T13:59:59.994Z,1.23
2023-04-18T14:05:03.233Z,3.10
2023-04-18T14:10:07.461Z,2.38
2023-04-18T14:15:12.181Z,1.45
2023-04-18T14:20:19.358Z,1.70
2023-04-18T14:25:23.075Z,1.25
2023-04-18T14:30:27.033Z,1.65
2023-04-18T14:35:31.613Z,1.55
2023-04-18T14:40:34.840Z,1.25
2023-04-18T14:45:38.521Z,1.10
2023-04-18T14:50:41.864Z,1.27
2023-04-18T14:55:45.875Z,1.67
2023-04-18T15:00:49.586Z,1.58
2023-04-18T15:05:54.136Z,1.58
2023-04-18T15:10:57.569Z,1.60
2023-04-18T15:16:01.755Z,1.33
2023-04-18T15:21:06.077Z,1.63
2023-04-18T15:26:10.175Z,1.90
2023-04-18T15:43:28.351Z,1.30
2023-04-18T15:48:36.733Z,1.17
2023-04-18T15:53:40.590Z,1.17
2023-04-18T15:58:44.604Z,0.80
2023-04-18T16:03:48.511Z,1.15
2023-04-18T16:08:52.271Z,1.40
2023-04-18T16:13:58.525Z,1.02
2023-04-18T16:19:02.277Z,1.10
2023-04-18T16:24:06.816Z,1.05
2023-04-18T16:29:10.538Z,1.00
2023-04-18T16:34:16.137Z,1.20
2023-04-18T16:39:20.171Z,1.48
2023-04-18T16:44:23.887Z,1.48
2023-04-18T16:49:27.786Z,1.55
2023-04-18T16:54:31.452Z,1.52
2023-04-18T16:59:37.023Z,1.98
2023-04-18T17:04:42.620Z,2.17
2023-04-18T17:09:46.914Z,1.77
2023-04-18T17:14:50.235Z,1.92
2023-04-18T17:19:54.012Z,2.05
2023-04-18T17:24:59.205Z,2.13
2023-04-18T17:30:03.615Z,2.30
2023-04-18T17:35:08.395Z,2.45
2023-04-18T17:40:14.772Z,2.55
2023-04-18T17:45:20.787Z,3.17
2023-04-18T17:50:24.960Z,5.18
2023-04-18T17:55:28.432Z,3.55
2023-04-18T18:00:31.870Z,2.95
2023-04-18T18:05:35.102Z,2.22
2023-04-18T18:10:39.489Z,2.33
2023-04-18T18:15:43.662Z,2.40
2023-04-18T18:20:47.299Z,2.47
2023-04-18T18:25:52.395Z,2.95
2023-04-18T18:30:56.398Z,2.60
2023-04-18T18:36:00.789Z,2.10
2023-04-18T18:41:05.014Z,2.08
2023-04-18T18:46:08.918Z,2.50
2023-04-18T18:51:12.996Z,1.80
2023-04-18T18:56:16.646Z,3.17
2023-04-18T19:01:20.855Z,3.50
2023-04-18T19:06:24.457Z,2.80
2023-04-18T19:11:28.562Z,2.85
2023-04-18T19:16:36.220Z,2.58
2023-04-18T19:21:43.013Z,2.80
2023-04-18T19:26:48.017Z,2.40
2023-04-18T19:31:51.880Z,2.55
2023-04-18T19:36:55.135Z,2.50
2023-04-18T19:41:59.756Z,2.25
2023-04-18T19:47:04.086Z,2.25
2023-04-18T19:52:07.222Z,2.50
2023-04-18T19:57:10.787Z,2.45
2023-04-18T20:02:14.552Z,2.65
2023-04-18T20:07:18.665Z,2.83
2023-04-18T20:12:21.819Z,2.53
2023-04-18T20:17:27.113Z,3.00
2023-04-18T20:22:32.564Z,2.42
2023-04-18T20:27:36.632Z,2.50
2023-04-18T20:32:39.846Z,3.13
2023-04-18T20:37:44.913Z,2.80
2023-04-18T20:42:48.173Z,2.90
2023-04-18T20:47:51.839Z,3.13
2023-04-18T20:52:55.668Z,2.75
2023-04-18T20:57:59.310Z,3.17
2023-04-18T21:03:03.820Z,3.17
2023-04-18T21:08:07.145Z,3.00
2023-04-18T21:13:12.772Z,3.15
2023-04-18T21:18:16.384Z,2.90
2023-04-18T21:23:20.108Z,2.97
2023-04-18T21:28:24.096Z,2.45
2023-04-18T21:33:27.605Z,2.30
2023-04-18T21:38:31.085Z,2.20
2023-04-18T21:43:34.684Z,2.22
2023-04-18T21:48:39.761Z,1.58
2023-04-18T21:53:43.368Z,1.55
2023-04-18T21:58:46.619Z,1.65
2023-04-18T22:03:49.901Z,1.73
2023-04-18T22:08:54.316Z,2.20
2023-04-18T22:13:58.415Z,1.80
2023-04-18T22:19:02.676Z,1.63
2023-04-18T22:24:06.951Z,2.05
2023-04-18T22:29:10.541Z,2.10
2023-04-18T22:34:14.864Z,2.17
2023-04-18T22:39:23.181Z,1.83
2023-04-18T22:49:30.399Z,1.83
2023-04-18T22:54:34.816Z,1.88
2023-04-18T22:59:38.744Z,2.10
2023-04-18T23:04:42.556Z,2.50
2023-04-18T23:09:46.579Z,1.98
2023-04-18T23:14:50.855Z,2.42
2023-04-18T23:19:53.859Z,2.45
2023-04-18T23:24:57.863Z,2.70
2023-04-18T23:30:01.046Z,2.67
2023-04-18T23:35:07.159Z,2.58
2023-04-18T23:40:11.041Z,3.15
2023-04-18T23:45:15.273Z,2.95
2023-04-18T23:50:19.236Z,3.05
2023-04-18T23:55:23.976Z,2.80
